Time;durP1;ratioP1;P1;durP2;ratioP2;P2;SDS_P1;SDS_P2;PMS_P1;PMS_P2;Temp;Humidity;BMP_temperature;BMP_pressure;BME280_temperature;BME280_humidity;BME280_pressure;Samples;Min_cycle;Max_cycle;Signal;HPM_P1;HPM_P2
2022/05/27 00:01:54;;;;;;;1.13;1.02;;;;;;;15.79;65.39;99143.28;4174551;28;20235;-53
2022/05/27 00:03:58;;;;;;;1.88;0.80;;;;;;;15.78;65.54;99143.53;4172451;28;20274;-52
2022/05/27 00:06:01;;;;;;;1.38;0.80;;;;;;;15.93;65.30;99136.19;4175905;28;20287;-53
2022/05/27 00:08:03;;;;;;;0.70;0.70;;;;;;;15.89;65.32;99137.81;4175120;28;20561;-52
2022/05/27 00:10:06;;;;;;;2.13;0.70;;;;;;;15.71;65.93;99135.50;4175215;28;20622;-53
2022/05/27 00:12:08;;;;;;;1.70;1.27;;;;;;;15.80;65.54;99141.34;4193649;28;20639;-53
2022/05/27 00:14:10;;;;;;;1.83;1.40;;;;;;;15.69;66.08;99132.19;4173212;28;20634;-52
2022/05/27 00:16:12;;;;;;;1.52;0.70;;;;;;;15.67;65.87;99128.88;4188252;28;20662;-52
2022/05/27 00:18:14;;;;;;;0.63;0.63;;;;;;;15.65;66.16;99125.56;4174440;28;20204;-53
2022/05/27 00:20:15;;;;;;;1.30;0.98;;;;;;;15.64;66.06;99128.56;4156547;28;20205;-53
2022/05/27 00:22:17;;;;;;;1.23;0.90;;;;;;;15.69;66.00;99121.16;4175022;28;20231;-53
2022/05/27 00:24:19;;;;;;;0.65;0.60;;;;;;;15.66;66.18;99121.69;4185977;28;20512;-52
2022/05/27 00:26:20;;;;;;;1.20;1.10;;;;;;;15.52;66.58;99112.25;4156679;28;20666;-52
2022/05/27 00:28:23;;;;;;;2.13;1.00;;;;;;;15.44;67.05;99112.72;4192523;28;20199;-53
2022/05/27 00:30:25;;;;;;;1.02;0.98;;;;;;;15.48;66.75;99116.63;4191972;28;20203;-53
2022/05/27 00:32:27;;;;;;;0.70;0.70;;;;;;;15.40;66.81;99117.13;4176294;28;20270;-52
2022/05/27 00:34:29;;;;;;;0.82;0.80;;;;;;;15.50;66.62;99117.16;4172961;28;20666;-52
2022/05/27 00:36:30;;;;;;;0.98;0.70;;;;;;;15.53;66.79;99104.78;4169434;28;20238;-52
2022/05/27 00:38:32;;;;;;;0.73;0.70;;;;;;;15.48;66.60;99111.09;4174778;28;20807;-53
2022/05/27 00:40:43;;;;;;;1.35;0.98;;;;;;;15.42;67.38;99114.09;4159705;28;20201;-53
2022/05/27 00:42:46;;;;;;;1.85;0.88;;;;;;;15.49;66.86;99121.03;4178990;28;20283;-53
2022/05/27 00:44:47;;;;;;;1.15;0.70;;;;;;;15.36;67.49;99120.69;4175860;28;20282;-53
2022/05/27 00:46:49;;;;;;;0.65;0.65;;;;;;;15.51;67.00;99118.00;4171233;28;20641;-52
2022/05/27 00:49:03;;;;;;;3.22;0.70;;;;;;;15.54;66.74;99110.03;4161141;28;20236;-53
2022/05/27 00:51:15;;;;;;;0.95;0.80;;;;;;;15.41;67.21;99107.75;4189381;28;20233;-53
2022/05/27 00:53:40;;;;;;;1.60;0.77;;;;;;;15.35;67.75;99106.06;4192081;28;20210;-52
2022/05/27 00:55:44;;;;;;;1.15;1.05;;;;;;;15.33;67.72;99099.97;4188595;28;20257;-53
2022/05/27 00:57:52;;;;;;;1.15;0.98;;;;;;;15.39;67.74;99096.16;4189391;28;20203;-53
2022/05/27 01:00:04;;;;;;;1.00;1.00;;;;;;;15.28;68.13;99094.41;4170490;28;20207;-53
2022/05/27 01:02:09;;;;;;;1.42;1.02;;;;;;;15.25;68.08;99092.19;4167826;28;20228;-53
2022/05/27 01:04:11;;;;;;;0.90;0.90;;;;;;;15.32;68.21;99097.47;4186570;28;20233;-53
2022/05/27 01:06:12;;;;;;;1.23;1.00;;;;;;;15.24;68.33;99090.50;4190905;28;20199;-53
2022/05/27 01:08:17;;;;;;;1.23;0.95;;;;;;;15.29;68.03;99092.47;4160971;28;20666;-52
2022/05/27 01:10:19;;;;;;;1.63;1.52;;;;;;;15.32;68.13;99081.78;4156954;28;20211;-53
2022/05/27 01:12:56;;;;;;;0.98;0.98;;;;;;;15.25;68.31;99091.34;4169938;28;20636;-52
2022/05/27 01:15:04;;;;;;;0.80;0.75;;;;;;;15.26;68.28;99087.47;4174305;28;20207;-53
2022/05/27 01:17:17;;;;;;;1.85;1.20;;;;;;;15.20;68.42;99086.63;4173664;28;20210;-53
2022/05/27 01:20:18;;;;;;;1.23;1.13;;;;;;;15.00;69.15;99089.25;4173505;28;20664;-53
2022/05/27 01:22:58;;;;;;;1.42;0.95;;;;;;;15.05;69.16;99091.19;4189098;28;20278;-53
2022/05/27 01:25:09;;;;;;;1.05;0.95;;;;;;;15.15;68.71;99094.84;4187313;28;20206;-53
2022/05/27 01:27:39;;;;;;;1.27;1.17;;;;;;;15.10;68.89;99083.78;4164731;28;20566;-53
2022/05/27 01:29:59;;;;;;;1.13;0.98;;;;;;;15.06;68.71;99088.19;4192893;28;20198;-53
2022/05/27 01:32:07;;;;;;;1.50;1.40;;;;;;;15.12;68.84;99102.81;4177327;28;20226;-52
2022/05/27 01:34:23;;;;;;;2.78;1.10;;;;;;;15.04;69.14;99095.88;4188449;28;20196;-54
2022/05/27 01:36:46;;;;;;;2.47;1.58;;;;;;;15.05;69.09;99086.53;4188499;28;20200;-53
2022/05/27 01:38:57;;;;;;;1.58;1.25;;;;;;;15.01;69.10;99085.38;4189749;28;20235;-53
2022/05/27 01:41:11;;;;;;;1.02;0.93;;;;;;;15.00;69.23;99080.97;4173160;28;20211;-53
2022/05/27 01:43:38;;;;;;;1.90;1.10;;;;;;;14.95;69.55;99078.16;4170358;28;20363;-53
2022/05/27 01:46:05;;;;;;;2.05;1.10;;;;;;;14.90;69.70;99089.16;4187064;28;20286;-53
2022/05/27 01:48:19;;;;;;;1.52;1.20;;;;;;;14.82;69.95;99089.66;4180165;28;20204;-53
2022/05/27 01:50:28;;;;;;;0.93;0.82;;;;;;;14.82;69.96;99092.41;4175811;28;20218;-52
2022/05/27 01:52:42;;;;;;;1.10;1.00;;;;;;;14.91;69.58;99079.78;4195052;28;20662;-53
2022/05/27 01:54:59;;;;;;;1.30;1.20;;;;;;;14.81;69.86;99082.47;4173058;28;20664;-52
2022/05/27 01:57:15;;;;;;;1.55;1.42;;;;;;;14.81;70.02;99084.38;4163602;28;20233;-53
2022/05/27 01:59:34;;;;;;;3.33;1.30;;;;;;;14.64;70.55;99079.00;4192789;28;20203;-53
2022/05/27 02:01:40;;;;;;;1.33;1.23;;;;;;;14.73;70.26;99076.59;4189071;28;21003;-53
2022/05/27 02:03:46;;;;;;;1.40;1.30;;;;;;;14.77;70.11;99073.06;4158818;28;20284;-53
2022/05/27 02:06:11;;;;;;;1.70;1.35;;;;;;;14.71;70.41;99073.28;4184091;28;20214;-53
2022/05/27 02:08:18;;;;;;;9.07;2.47;;;;;;;14.63;70.48;99071.84;4160268;28;20606;-52
2022/05/27 02:10:30;;;;;;;2.08;1.92;;;;;;;14.58;70.76;99073.72;4178227;28;20579;-52
2022/05/27 02:12:40;;;;;;;1.50;1.40;;;;;;;14.66;70.46;99076.00;4178380;28;20223;-53
2022/05/27 02:14:46;;;;;;;2.25;1.95;;;;;;;14.61;70.44;99068.53;4178956;28;20211;-52
2022/05/27 02:16:51;;;;;;;1.83;1.73;;;;;;;14.50;70.78;99065.94;4158375;28;20200;-52
2022/05/27 02:18:57;;;;;;;1.45;1.35;;;;;;;14.61;70.57;99063.03;4175837;28;20213;-52
2022/05/27 02:21:05;;;;;;;1.70;1.60;;;;;;;14.51;70.78;99067.63;4155059;28;20209;-53
2022/05/27 02:23:30;;;;;;;2.13;1.88;;;;;;;14.43;71.01;99071.66;4176503;28;20657;-53
2022/05/27 02:25:37;;;;;;;1.67;1.58;;;;;;;14.56;70.68;99087.75;4174613;28;20266;-53
2022/05/27 02:27:54;;;;;;;2.30;2.10;;;;;;;14.54;70.62;99073.44;4157269;28;20207;-53
2022/05/27 02:29:58;;;;;;;2.05;1.77;;;;;;;14.54;70.62;99076.19;4175102;28;20203;-53
2022/05/27 02:32:13;;;;;;;2.33;1.38;;;;;;;14.44;70.99;99073.31;4163343;28;20478;-53
2022/05/27 02:36:46;;;;;;;1.90;1.58;;;;;;;14.61;70.23;99067.69;4193659;28;20548;-52
2022/05/27 02:38:48;;;;;;;1.58;1.48;;;;;;;14.57;70.42;99080.34;4175077;28;20290;-52
2022/05/27 02:41:03;;;;;;;2.28;1.90;;;;;;;14.57;70.49;99067.38;4172756;28;20219;-52
2022/05/27 02:43:26;;;;;;;2.38;1.77;;;;;;;14.49;70.79;99067.88;4179328;28;20238;-53
2022/05/27 02:45:42;;;;;;;1.90;1.80;;;;;;;14.48;70.87;99068.97;4177784;28;20215;-52
2022/05/27 02:48:18;;;;;;;1.70;1.60;;;;;;;14.53;70.78;99070.94;4185718;28;20665;-53
2022/05/27 02:50:31;;;;;;;2.08;1.63;;;;;;;14.49;70.71;99065.13;4175477;28;20200;-53
2022/05/27 02:52:52;;;;;;;3.00;2.00;;;;;;;14.55;70.68;99069.56;4190608;28;20219;-53
2022/05/27 02:55:07;;;;;;;2.80;2.58;;;;;;;14.50;71.02;99064.00;4188550;28;20210;-53
2022/05/27 02:57:28;;;;;;;1.88;1.70;;;;;;;14.56;70.70;99073.97;4172798;28;20227;-53
2022/05/27 02:59:31;;;;;;;2.63;1.50;;;;;;;14.47;70.91;99067.31;4191853;28;20497;-53
2022/05/27 03:01:32;;;;;;;4.38;1.55;;;;;;;14.46;70.95;99068.41;4172915;28;20228;-53
2022/05/27 03:03:35;;;;;;;1.98;1.77;;;;;;;14.46;70.86;99068.41;4164811;28;20899;-53
2022/05/27 03:05:45;;;;;;;2.35;2.13;;;;;;;14.46;71.12;99071.16;4171986;28;20262;-53
2022/05/27 03:08:05;;;;;;;4.07;2.30;;;;;;;14.40;71.05;99066.69;4188673;28;20214;-53
2022/05/27 03:10:31;;;;;;;6.75;1.80;;;;;;;14.54;70.90;99070.66;4177120;28;20208;-53
2022/05/27 03:13:11;;;;;;;3.03;2.08;;;;;;;14.56;70.51;99073.97;4191329;28;20223;-52
2022/05/27 03:15:12;;;;;;;1.42;1.33;;;;;;;14.57;70.62;99072.06;4191491;28;20222;-53
2022/05/27 03:17:23;;;;;;;2.67;1.80;;;;;;;14.55;70.76;99074.25;4170300;28;20211;-53
2022/05/27 03:19:33;;;;;;;2.33;1.95;;;;;;;14.56;70.44;99081.44;4159271;28;20216;-53
2022/05/27 03:21:44;;;;;;;1.63;1.52;;;;;;;14.56;70.74;99073.19;4195827;28;20646;-53
2022/05/27 03:24:20;;;;;;;2.00;1.80;;;;;;;14.60;70.32;99064.13;4195504;28;20228;-53
2022/05/27 03:26:27;;;;;;;2.15;1.60;;;;;;;14.58;70.39;99063.53;4185994;28;20265;-53
2022/05/27 03:28:44;;;;;;;2.35;2.00;;;;;;;14.67;69.98;99067.47;4178102;28;20211;-53
2022/05/27 03:30:56;;;;;;;2.78;2.58;;;;;;;14.70;69.98;99068.88;4189532;28;20215;-52
2022/05/27 03:33:23;;;;;;;2.83;2.00;;;;;;;14.65;69.99;99069.69;4174963;28;20521;-52
2022/05/27 03:35:31;;;;;;;1.98;1.77;;;;;;;14.60;70.10;99064.13;4159546;28;20247;-53
2022/05/27 03:37:54;;;;;;;2.13;1.92;;;;;;;14.64;69.93;99065.25;4168868;28;20204;-52
2022/05/27 03:40:09;;;;;;;1.70;1.60;;;;;;;14.68;69.88;99069.13;4189750;28;20799;-52
2022/05/27 03:42:11;;;;;;;2.50;2.30;;;;;;;14.62;69.95;99078.44;4189107;28;20394;-53
2022/05/27 03:44:16;;;;;;;2.33;2.00;;;;;;;14.62;70.05;99075.69;4158943;28;20686;-53
2022/05/27 03:46:36;;;;;;;2.75;1.77;;;;;;;14.70;69.85;99077.97;4172649;28;20247;-53
2022/05/27 03:48:38;;;;;;;2.25;2.05;;;;;;;14.69;70.07;99075.50;4174756;28;20200;-53
2022/05/27 03:50:40;;;;;;;3.30;2.17;;;;;;;14.67;70.06;99075.75;4187162;28;20211;-53
2022/05/27 03:52:46;;;;;;;1.70;1.60;;;;;;;14.79;69.42;99084.66;4166194;28;20333;-52
2022/05/27 03:54:47;;;;;;;2.08;1.88;;;;;;;14.76;69.63;99087.94;4173719;28;20204;-53
2022/05/27 03:56:49;;;;;;;3.35;2.22;;;;;;;14.80;69.39;99083.56;4196663;28;20235;-53
2022/05/27 03:58:51;;;;;;;2.00;1.90;;;;;;;14.73;69.77;99082.97;4176435;28;20654;-53
2022/05/27 04:00:53;;;;;;;1.85;1.73;;;;;;;14.74;70.14;99084.63;4173431;28;20689;-53
2022/05/27 04:02:54;;;;;;;2.78;2.58;;;;;;;14.80;69.81;99083.56;4171619;28;20617;-53
2022/05/27 04:04:59;;;;;;;3.00;2.15;;;;;;;14.61;70.14;99087.81;4173204;28;20218;-52
2022/05/27 04:07:02;;;;;;;1.80;1.50;;;;;;;14.69;70.05;99086.50;4177951;28;20211;-53
2022/05/27 04:09:04;;;;;;;2.17;1.98;;;;;;;14.61;70.36;99085.06;4173943;28;20207;-52
2022/05/27 04:11:06;;;;;;;1.65;1.52;;;;;;;14.69;70.21;99087.31;4155396;28;20213;-53
2022/05/27 04:13:08;;;;;;;2.65;2.22;;;;;;;14.72;69.93;99081.31;4171958;28;20231;-52
2022/05/27 04:15:10;;;;;;;2.20;2.10;;;;;;;14.67;70.13;99086.78;4179805;28;20577;-52
2022/05/27 04:19:31;;;;;;;3.15;2.15;;;;;;;14.63;70.31;99088.38;4188358;28;20203;-53
2022/05/27 04:21:33;;;;;;;3.38;2.53;;;;;;;14.79;70.03;99087.44;4176081;28;20227;-53
2022/05/27 04:23:35;;;;;;;2.45;2.25;;;;;;;14.79;70.10;99095.69;4174096;28;20220;-52
2022/05/27 04:25:38;;;;;;;1.67;1.50;;;;;;;14.81;70.04;99089.91;4175518;28;20212;-53
2022/05/27 04:27:40;;;;;;;2.10;1.88;;;;;;;14.77;69.91;99088.78;4177237;28;20796;-53
2022/05/27 04:29:44;;;;;;;4.97;2.70;;;;;;;14.69;70.15;99092.84;4175301;28;20673;-52
2022/05/27 04:31:46;;;;;;;1.83;1.63;;;;;;;14.68;70.19;99101.34;4156489;28;20233;-52
2022/05/27 04:33:48;;;;;;;2.03;1.90;;;;;;;14.65;70.64;99097.22;4190649;28;20203;-53
2022/05/27 04:35:49;;;;;;;2.65;2.25;;;;;;;14.78;70.16;99095.94;4172930;28;20211;-53
2022/05/27 04:37:51;;;;;;;2.53;2.33;;;;;;;14.76;70.16;99098.97;4171766;28;20213;-53
2022/05/27 04:39:53;;;;;;;2.40;2.17;;;;;;;14.66;70.47;99098.88;4184117;28;20195;-52
2022/05/27 04:41:55;;;;;;;3.33;2.50;;;;;;;14.71;70.38;99107.16;4189249;28;21704;-53
2022/05/27 04:43:58;;;;;;;3.85;2.75;;;;;;;14.78;70.03;99107.81;4186614;28;20263;-52
2022/05/27 04:46:01;;;;;;;2.30;2.10;;;;;;;14.85;70.04;99102.91;4173072;28;20219;-53
2022/05/27 04:48:03;;;;;;;2.58;2.10;;;;;;;14.91;69.63;99114.78;4170156;28;20232;-52
2022/05/27 04:50:08;;;;;;;1.85;1.75;;;;;;;14.88;69.84;99104.28;4172172;28;20699;-52
2022/05/27 04:52:10;;;;;;;2.60;2.40;;;;;;;14.86;69.78;99099.06;4182741;28;20258;-53
2022/05/27 04:54:12;;;;;;;2.92;2.03;;;;;;;14.89;69.64;99104.03;4166912;28;20208;-52
2022/05/27 04:56:17;;;;;;;2.33;2.13;;;;;;;14.86;69.76;99101.81;4167184;28;20204;-52
2022/05/27 04:58:19;;;;;;;1.88;1.67;;;;;;;14.78;69.97;99096.78;4172305;28;20204;-53
2022/05/27 05:00:22;;;;;;;2.40;2.20;;;;;;;14.82;69.92;99084.13;4174252;28;20203;-52
2022/05/27 05:02:24;;;;;;;2.67;2.47;;;;;;;14.77;70.03;99094.28;4173263;28;20223;-52
2022/05/27 05:04:26;;;;;;;2.28;2.10;;;;;;;14.88;69.70;99085.84;4176484;28;20258;-53
2022/05/27 05:06:28;;;;;;;2.08;1.85;;;;;;;14.76;70.10;99092.63;4180537;28;20207;-53
2022/05/27 05:08:34;;;;;;;4.82;1.95;;;;;;;14.68;70.35;99093.94;4189792;28;20289;-52
2022/05/27 05:10:38;;;;;;;2.00;1.77;;;;;;;14.77;70.05;99084.09;4177377;28;20243;-52
2022/05/27 05:12:40;;;;;;;2.53;2.33;;;;;;;14.79;69.98;99086.59;4193178;28;20223;-52
2022/05/27 05:14:42;;;;;;;2.30;2.10;;;;;;;14.81;69.74;99090.75;4193524;28;20576;-52
2022/05/27 05:16:43;;;;;;;1.98;1.80;;;;;;;14.77;70.14;99095.09;4184187;28;20203;-53
2022/05/27 05:18:45;;;;;;;1.75;1.65;;;;;;;14.68;70.37;99085.66;4179982;28;20235;-53
2022/05/27 05:20:47;;;;;;;1.75;1.50;;;;;;;14.74;70.62;99092.03;4179245;28;20209;-53
2022/05/27 05:22:49;;;;;;;2.47;2.00;;;;;;;14.84;70.23;99098.47;4174028;28;20309;-53
2022/05/27 05:24:54;;;;;;;1.90;1.80;;;;;;;14.97;69.85;99089.75;4175213;28;20214;-53
2022/05/27 05:26:58;;;;;;;1.83;1.63;;;;;;;15.07;69.64;99098.13;4173368;28;20590;-53
2022/05/27 05:28:59;;;;;;;1.85;1.60;;;;;;;15.23;69.21;99099.88;4170805;28;20239;-52
2022/05/27 05:31:01;;;;;;;2.58;2.38;;;;;;;15.41;68.62;99084.84;4172142;28;20204;-53
2022/05/27 05:33:03;;;;;;;2.47;2.28;;;;;;;15.49;68.47;99093.44;4173401;28;20228;-53
2022/05/27 05:35:06;;;;;;;2.83;1.70;;;;;;;15.64;68.13;99093.53;4155064;28;20217;-53
2022/05/27 05:37:08;;;;;;;2.58;2.10;;;;;;;15.81;68.38;99088.66;4175638;28;20196;-53
2022/05/27 05:39:11;;;;;;;1.55;1.45;;;;;;;16.00;67.68;99089.81;4176972;28;20200;-52
2022/05/27 05:41:13;;;;;;;1.80;1.70;;;;;;;16.26;66.55;99094.31;4187507;28;20203;-53
2022/05/27 05:43:14;;;;;;;1.85;1.27;;;;;;;16.40;66.21;99100.16;4176441;28;20663;-52
2022/05/27 05:45:19;;;;;;;1.42;1.33;;;;;;;16.54;65.45;99101.28;4185033;28;20214;-53
2022/05/27 05:47:21;;;;;;;1.77;1.48;;;;;;;16.23;65.24;99100.38;4186167;28;20640;-53
2022/05/27 05:49:23;;;;;;;1.20;1.02;;;;;;;16.00;65.92;99095.34;4167993;28;20583;-52
2022/05/27 05:51:25;;;;;;;1.40;1.20;;;;;;;15.98;65.68;99097.56;4174295;28;20559;-53
2022/05/27 05:53:26;;;;;;;1.42;1.33;;;;;;;15.86;66.17;99105.22;4173320;28;20302;-52
2022/05/27 05:55:28;;;;;;;1.10;1.00;;;;;;;15.82;65.88;99104.09;4191476;28;20211;-53
2022/05/27 05:57:30;;;;;;;1.42;1.33;;;;;;;15.80;65.78;99100.78;4190186;28;20208;-53
2022/05/27 05:59:33;;;;;;;1.08;1.05;;;;;;;15.65;66.42;99100.72;4192240;28;20263;-52
2022/05/27 06:01:35;;;;;;;1.13;1.02;;;;;;;15.73;66.42;99096.59;4173957;28;20592;-52
2022/05/27 06:03:36;;;;;;;1.20;1.10;;;;;;;15.75;66.65;99103.50;4187572;28;20323;-53
2022/05/27 06:05:41;;;;;;;1.30;1.13;;;;;;;15.78;66.80;99103.00;4173336;28;20201;-53
2022/05/27 06:07:42;;;;;;;1.10;1.08;;;;;;;15.79;66.78;99096.38;4175047;28;20208;-52
2022/05/27 06:09:44;;;;;;;1.10;1.00;;;;;;;15.89;66.92;99090.88;4177415;28;20200;-53
2022/05/27 06:11:46;;;;;;;1.15;1.08;;;;;;;15.74;67.08;99096.34;4190265;28;20251;-53
2022/05/27 06:13:47;;;;;;;0.93;0.93;;;;;;;15.68;67.05;99100.16;4177224;28;20239;-52
2022/05/27 06:15:49;;;;;;;1.33;1.23;;;;;;;15.75;67.17;99102.72;4173839;28;20258;-56
2022/05/27 06:17:51;;;;;;;1.40;1.17;;;;;;;15.71;67.23;99094.09;4185850;28;20204;-53
2022/05/27 06:19:53;;;;;;;1.80;1.45;;;;;;;15.72;66.95;99093.03;4166199;28;20281;-54
2022/05/27 06:21:54;;;;;;;1.17;1.08;;;;;;;15.64;67.35;99089.94;4180910;28;20227;-52
2022/05/27 06:23:56;;;;;;;1.05;1.02;;;;;;;15.71;67.26;99101.56;4168246;28;20620;-53
2022/05/27 06:26:02;;;;;;;0.95;0.95;;;;;;;15.82;67.40;99098.56;4168797;28;20698;-53
2022/05/27 06:35:06;;;;;;;1.77;1.38;;;;;;;15.73;67.51;99110.41;4190248;28;20200;-52
2022/05/27 06:37:14;;;;;;;1.50;1.40;;;;;;;15.70;67.62;99110.94;4164029;28;20648;-54
2022/05/27 06:39:16;;;;;;;1.65;1.55;;;;;;;15.60;67.72;99111.72;4178655;28;20645;-52
2022/05/27 06:41:18;;;;;;;1.70;1.60;;;;;;;15.53;68.21;99116.66;4193516;28;20218;-52
2022/05/27 06:43:20;;;;;;;1.23;1.13;;;;;;;15.46;68.45;99116.06;4177515;28;20498;-51
2022/05/27 06:45:22;;;;;;;1.63;1.42;;;;;;;15.61;68.90;99113.38;4184995;28;21790;-52
2022/05/27 06:47:24;;;;;;;1.83;1.33;;;;;;;15.67;68.33;99109.56;4188659;28;20742;-52
2022/05/27 06:49:26;;;;;;;1.30;1.08;;;;;;;15.63;68.41;99107.59;4193385;28;20212;-52
2022/05/27 06:51:29;;;;;;;2.28;1.98;;;;;;;15.72;68.17;99120.63;4177620;28;20673;-54
2022/05/27 06:53:31;;;;;;;1.48;1.38;;;;;;;15.66;68.37;99116.19;4167283;28;20627;-53
2022/05/27 06:55:32;;;;;;;1.55;1.45;;;;;;;15.71;68.18;99123.66;4183580;28;20697;-52
2022/05/27 06:57:34;;;;;;;1.35;1.25;;;;;;;15.69;68.10;99126.66;4168839;28;20635;-54
2022/05/27 06:59:36;;;;;;;1.80;1.70;;;;;;;15.59;68.76;99115.59;4195203;28;20200;-53
2022/05/27 07:01:38;;;;;;;2.40;1.27;;;;;;;15.69;68.08;99132.19;4185550;28;20273;-53
2022/05/27 07:03:40;;;;;;;1.30;1.27;;;;;;;15.69;68.56;99129.41;4197104;28;20224;-53
2022/05/27 07:05:42;;;;;;;1.60;1.50;;;;;;;15.59;68.48;99132.16;4176672;28;20717;-52
2022/05/27 07:07:43;;;;;;;1.35;1.25;;;;;;;15.53;68.63;99119.41;4197471;28;20210;-52
2022/05/27 07:09:45;;;;;;;1.80;1.70;;;;;;;15.68;68.77;99136.03;4162423;28;20204;-53
2022/05/27 07:11:50;;;;;;;1.42;1.33;;;;;;;15.66;68.81;99132.72;4186915;28;20274;-53
2022/05/27 07:13:52;;;;;;;5.65;1.80;;;;;;;15.60;69.01;99133.81;4181035;28;20243;-51
2022/05/27 07:15:53;;;;;;;2.08;1.98;;;;;;;15.45;68.81;99130.97;4180524;28;20211;-52
2022/05/27 07:17:56;;;;;;;1.40;1.30;;;;;;;15.38;69.19;99144.16;4180218;28;20696;-53
2022/05/27 07:19:57;;;;;;;1.25;1.15;;;;;;;15.19;69.31;99142.03;4194954;28;20200;-52
2022/05/27 07:21:59;;;;;;;1.27;1.10;;;;;;;15.21;69.52;99135.16;4184276;28;20227;-52
2022/05/27 07:24:01;;;;;;;1.30;1.23;;;;;;;15.32;69.28;99138.84;4182015;28;20223;-52
2022/05/27 07:26:03;;;;;;;2.22;2.03;;;;;;;15.28;68.72;99141.28;4180442;28;20301;-53
2022/05/27 07:28:08;;;;;;;1.00;0.90;;;;;;;15.38;68.30;99144.16;4181297;28;20196;-52
2022/05/27 07:30:11;;;;;;;0.90;0.90;;;;;;;15.34;67.92;99134.72;4195991;28;20207;-53
2022/05/27 07:32:14;;;;;;;0.80;0.80;;;;;;;15.39;67.74;99132.03;4182052;28;20219;-53
2022/05/27 07:34:16;;;;;;;1.95;0.80;;;;;;;15.48;67.69;99138.69;4181918;28;20235;-52
2022/05/27 07:36:18;;;;;;;0.65;0.65;;;;;;;15.56;67.43;99142.88;4194707;28;20210;-53
2022/05/27 07:38:19;;;;;;;0.60;0.60;;;;;;;15.67;67.29;99139.91;4189679;28;20219;-52
2022/05/27 07:40:22;;;;;;;0.82;0.82;;;;;;;15.72;67.38;99131.66;4182774;28;21127;-52
2022/05/27 07:42:23;;;;;;;0.90;0.90;;;;;;;15.72;67.08;99139.94;4185562;28;20231;-52
2022/05/27 07:44:25;;;;;;;3.03;1.00;;;;;;;15.80;66.80;99136.66;4183732;28;20220;-53
2022/05/27 07:46:28;;;;;;;0.70;0.70;;;;;;;15.87;66.53;99159.34;4177995;28;20235;-51
2022/05/27 07:48:30;;;;;;;1.30;1.20;;;;;;;15.77;67.30;99158.44;4183624;28;20631;-53
2022/05/27 07:50:32;;;;;;;1.40;1.30;;;;;;;15.68;67.32;99149.00;4182822;28;20212;-52
2022/05/27 07:52:34;;;;;;;1.90;1.65;;;;;;;15.78;67.38;99158.19;4183229;28;20584;-53
2022/05/27 07:54:36;;;;;;;1.73;1.63;;;;;;;15.78;67.34;99152.69;4184638;28;20642;-53
2022/05/27 07:56:42;;;;;;;1.50;1.40;;;;;;;15.78;67.57;99146.31;4180180;28;20206;-53
2022/05/27 07:58:44;;;;;;;1.60;1.50;;;;;;;15.93;67.19;99154.66;4179584;28;20303;-52
2022/05/27 08:00:45;;;;;;;2.20;1.98;;;;;;;15.83;67.14;99158.19;4193588;28;20692;-52
2022/05/27 08:02:47;;;;;;;1.80;1.70;;;;;;;15.85;67.01;99153.25;4173008;28;20231;-52
2022/05/27 08:04:49;;;;;;;1.83;1.73;;;;;;;15.96;67.02;99149.44;4181752;28;20626;-53
2022/05/27 08:06:51;;;;;;;2.13;1.75;;;;;;;16.03;66.94;99150.00;4198251;28;20203;-53
2022/05/27 08:08:53;;;;;;;2.92;1.55;;;;;;;15.93;66.59;99143.63;4162982;28;20253;-52
2022/05/27 08:10:55;;;;;;;1.35;1.25;;;;;;;15.94;66.72;99135.06;4193499;28;20201;-52
2022/05/27 08:12:57;;;;;;;1.45;1.13;;;;;;;16.02;66.41;99137.31;4178852;28;20230;-52
2022/05/27 08:14:59;;;;;;;1.40;1.30;;;;;;;15.90;66.65;99133.94;4183196;28;20200;-54
2022/05/27 08:17:02;;;;;;;1.45;1.35;;;;;;;15.96;66.67;99138.38;4180304;28;20303;-54
2022/05/27 08:19:04;;;;;;;1.75;1.65;;;;;;;16.02;66.90;99142.03;4191462;28;20242;-52
2022/05/27 08:21:05;;;;;;;2.92;1.45;;;;;;;16.00;66.31;99145.03;4175301;28;20323;-53
2022/05/27 08:23:07;;;;;;;5.38;1.52;;;;;;;15.92;66.27;99145.56;4165088;28;20353;-52
2022/05/27 08:25:09;;;;;;;2.30;1.65;;;;;;;16.04;65.86;99151.66;4186406;28;20223;-53
2022/05/27 08:27:11;;;;;;;1.77;1.67;;;;;;;16.02;66.40;99148.34;4177402;28;20200;-54
2022/05/27 08:29:13;;;;;;;1.45;1.35;;;;;;;16.08;66.00;99152.81;4195587;28;20208;-53
2022/05/27 08:31:16;;;;;;;1.30;1.20;;;;;;;16.03;66.02;99144.50;4196347;28;20294;-51
2022/05/27 08:33:18;;;;;;;1.20;1.10;;;;;;;15.98;66.28;99152.78;4178557;28;20208;-52
2022/05/27 08:40:28;;;;;;;1.50;1.40;;;;;;;15.93;66.62;99136.19;4192083;28;20195;-54
2022/05/27 08:42:43;;;;;;;1.15;1.10;;;;;;;16.00;66.50;99134.00;4143800;28;20273;-53
2022/05/27 08:44:50;;;;;;;1.77;1.50;;;;;;;15.95;66.66;99136.72;4175642;28;20349;-52
2022/05/27 08:47:01;;;;;;;1.27;1.17;;;;;;;15.96;65.97;99132.88;4175483;28;20210;-53
2022/05/27 08:49:06;;;;;;;1.52;1.42;;;;;;;16.01;66.49;99132.91;4189023;28;20210;-52
2022/05/27 08:51:28;;;;;;;1.92;1.52;;;;;;;15.82;66.73;99137.22;4170514;28;20209;-52
2022/05/27 08:53:41;;;;;;;1.45;1.33;;;;;;;15.82;66.83;99142.75;4176713;28;20239;-52
2022/05/27 09:01:06;;;;;;;1.63;1.52;;;;;;;15.68;67.47;99141.56;4143496;28;20260;-52
2022/05/27 09:03:09;;;;;;;2.22;2.03;;;;;;;15.67;67.13;99142.66;4195481;28;20223;-52
2022/05/27 09:05:25;;;;;;;1.73;1.60;;;;;;;15.60;67.26;99144.84;4168364;28;20220;-52
2022/05/27 09:07:38;;;;;;;2.20;2.00;;;;;;;15.58;67.47;99152.56;4183388;28;20214;-51
2022/05/27 09:09:40;;;;;;;1.85;1.75;;;;;;;15.66;67.33;99146.53;4188056;28;20199;-52
2022/05/27 09:12:08;;;;;;;2.30;2.13;;;;;;;15.75;67.39;99153.19;4172657;28;20439;-52
2022/05/27 09:14:18;;;;;;;1.65;1.45;;;;;;;15.82;67.38;99152.97;4130111;28;20212;-52
2022/05/27 09:16:33;;;;;;;2.00;1.80;;;;;;;15.99;66.87;99151.66;4173959;28;20649;-51
2022/05/27 09:18:47;;;;;;;1.80;1.70;;;;;;;16.04;66.71;99154.44;4172566;28;20619;-52
2022/05/27 09:21:17;;;;;;;2.58;1.67;;;;;;;16.17;66.59;99159.47;4174328;28;20239;-51
2022/05/27 09:23:42;;;;;;;1.42;1.33;;;;;;;16.27;66.37;99151.22;4193019;28;20207;-51
2022/05/27 09:25:50;;;;;;;1.90;1.65;;;;;;;16.42;66.33;99156.00;4174791;28;20220;-51
2022/05/27 09:28:10;;;;;;;1.58;1.48;;;;;;;16.59;65.50;99154.66;4194595;28;20308;-52
2022/05/27 09:30:14;;;;;;;1.70;1.30;;;;;;;16.71;65.21;99152.47;4160549;28;20214;-52
2022/05/27 09:32:47;;;;;;;1.27;1.17;;;;;;;16.86;65.19;99152.50;4160243;28;20274;-52
2022/05/27 09:34:49;;;;;;;0.90;0.90;;;;;;;16.60;65.41;99156.31;4192647;28;20283;-53
2022/05/27 09:36:55;;;;;;;0.98;0.98;;;;;;;16.54;65.33;99151.03;4177232;28;20595;-51
2022/05/27 09:38:59;;;;;;;0.75;0.75;;;;;;;16.61;65.22;99152.44;4179370;28;20213;-50
2022/05/27 09:41:23;;;;;;;1.40;1.10;;;;;;;16.68;65.95;99153.00;4174995;28;20208;-52
2022/05/27 09:43:39;;;;;;;0.73;0.73;;;;;;;16.83;65.83;99153.03;4187099;28;20241;-52
2022/05/27 09:45:43;;;;;;;1.27;1.20;;;;;;;16.88;65.24;99155.81;4173186;28;20696;-52
2022/05/27 09:47:45;;;;;;;1.13;0.98;;;;;;;16.92;64.58;99147.78;4180199;28;20207;-52
2022/05/27 09:49:59;;;;;;;1.48;1.38;;;;;;;16.76;64.98;99160.75;4176111;28;20204;-51
2022/05/27 09:52:02;;;;;;;1.00;1.00;;;;;;;16.71;64.69;99158.00;4159502;28;20299;-52
2022/05/27 09:54:34;;;;;;;0.77;0.77;;;;;;;16.61;65.05;99165.41;4179594;28;20200;-52
2022/05/27 09:56:54;;;;;;;1.15;1.05;;;;;;;16.60;65.09;99166.53;4184671;28;20195;-51
2022/05/27 09:58:56;;;;;;;1.17;1.08;;;;;;;16.59;64.39;99167.63;4173760;28;20681;-52
2022/05/27 10:00:59;;;;;;;0.82;0.70;;;;;;;16.62;64.74;99159.63;4162728;28;20319;-51
2022/05/27 10:03:49;;;;;;;1.10;1.00;;;;;;;16.50;64.86;99145.22;4185947;28;20634;-51
2022/05/27 10:05:56;;;;;;;1.10;1.10;;;;;;;16.49;65.00;99149.09;4165181;28;20235;-52
2022/05/27 10:07:58;;;;;;;1.05;0.95;;;;;;;16.62;64.49;99165.16;4194891;28;20638;-52
2022/05/27 10:10:20;;;;;;;1.40;1.30;;;;;;;16.55;64.58;99148.00;4177112;28;20716;-52
2022/05/27 10:12:33;;;;;;;1.00;1.00;;;;;;;16.82;64.71;99142.28;4194738;28;20704;-52
2022/05/27 10:14:34;;;;;;;0.90;0.90;;;;;;;17.14;63.87;99140.88;4180562;28;20195;-52
2022/05/27 10:16:41;;;;;;;3.47;1.05;;;;;;;17.26;63.63;99138.69;4182111;28;20205;-52
2022/05/27 10:18:44;;;;;;;0.88;0.88;;;;;;;17.29;63.00;99140.88;4177364;28;20721;-52
2022/05/27 10:21:02;;;;;;;1.30;1.20;;;;;;;17.38;63.84;99145.59;4181060;28;20207;-52
2022/05/27 10:23:07;;;;;;;2.08;0.70;;;;;;;17.08;63.40;99139.22;4181869;28;20236;-52